Hlavní strana
METAR-TAF:

METAR-TAF

Letiště :

Notodden, Norsko

zeměpisná šířka: 59-34N, zeměpisná délka: 009-13E, výška: 19 m

Aktuální stav počasí

Zpráva byla vytvořena před 12 minutami, v 13:50 UTC
Západoseverozápadní vítr 13 kt, proměnlivý mezi západním a severoseverozápadním
Teplota 7°C
Vlhkost vzduchu 42%
Tlak 1003 hPa
Viditelnost 10 km a více
Polojasno ve výšce 7000 ft

METAR: ENNO 181350Z 30013KT 280V340 9999 SCT070 07/M05 Q1003

Čas: 15:02 (14:02 UTC)

Předpověď počasí

Zpráva byla vytvořena před 3 hodinami a 2 minutami, v 11:00 UTC
Předpověď platná od 18 v 12 UTC do 18 v 18 UTC
Západní vítr 8 kt
Viditelnost 10 km a více
Skoro jasno ve výšce 6000 ft
Dočasný
od 18 v 12 UTC do 18 v 16 UTC
Severozápadní vítr 15 kt s nárazy do 25 kt

TAF: ENNO 181100Z 1812/1818 28008KT 9999 FEW060 TEMPO 1812/1816 32015G25KT

Stav a předpovědi počasí z více než 4 000 letišť (zprávy METAR a TAF).

Červené a žluté tečky na mapě představují dostupné meteorologické stanice.

Když kurzor umístíte na tečku, zobrazí se název stanice.

Pak kliknutím zobrazíte stav a předpověď počasí.

Chcete-li změnit mapu, kliknutím na zelené tlačítko se znaménkem +mapu přiblížíte, kliknutím na zelené tlačítko se znaménkem – mapu oddálíte a kliknutím na zelené šipky přejdete na sousední mapy.


METAR-TAF: